createdAt,value
2017-07-09T00:00:53.165Z,1003.59
2017-07-09T00:01:53.192Z,1003.56
2017-07-09T00:02:53.222Z,1003.52
2017-07-09T00:03:53.249Z,1003.52
2017-07-09T00:04:53.277Z,1003.51
2017-07-09T00:05:53.305Z,1003.52
2017-07-09T00:06:53.330Z,1003.52
2017-07-09T00:07:53.359Z,1003.5
2017-07-09T00:08:53.386Z,1003.52
2017-07-09T00:09:53.413Z,1003.55
2017-07-09T00:10:53.442Z,1003.53
2017-07-09T00:11:53.468Z,1003.52
2017-07-09T00:12:53.496Z,1003.53
2017-07-09T00:13:53.524Z,1003.52
2017-07-09T00:14:53.548Z,1003.53
2017-07-09T00:15:53.577Z,1003.55
2017-07-09T00:16:53.605Z,1003.52
2017-07-09T00:17:53.631Z,1003.56
2017-07-09T00:18:53.861Z,1003.56
2017-07-09T00:19:53.685Z,1003.54
2017-07-09T00:20:53.714Z,1003.51
2017-07-09T00:21:53.740Z,1003.54
2017-07-09T00:22:53.767Z,1003.57
2017-07-09T00:23:53.794Z,1003.55
2017-07-09T00:24:53.822Z,1003.52
2017-07-09T00:25:53.850Z,1003.54
2017-07-09T00:26:53.876Z,1003.5
2017-07-09T00:27:53.903Z,1003.52
2017-07-09T00:28:53.931Z,1003.53
2017-07-09T00:29:53.958Z,1003.51
2017-07-09T00:30:53.986Z,1003.51
2017-07-09T00:31:54.012Z,1003.54
2017-07-09T00:32:54.040Z,1003.54
2017-07-09T00:33:54.065Z,1003.56
2017-07-09T00:34:54.094Z,1003.58
2017-07-09T00:35:54.121Z,1003.58
2017-07-09T00:36:54.148Z,1003.6
2017-07-09T00:37:54.177Z,1003.62
2017-07-09T00:38:54.203Z,1003.63
2017-07-09T00:39:54.228Z,1003.63
2017-07-09T00:40:54.256Z,1003.64
2017-07-09T00:41:54.283Z,1003.6
2017-07-09T00:42:54.311Z,1003.63
2017-07-09T00:43:54.336Z,1003.62
2017-07-09T00:44:54.366Z,1003.58
2017-07-09T00:45:54.392Z,1003.58
2017-07-09T00:46:54.419Z,1003.6
2017-07-09T00:47:54.450Z,1003.6
2017-07-09T00:48:54.473Z,1003.6
2017-07-09T00:49:54.501Z,1003.58
2017-07-09T00:50:54.526Z,1003.56
2017-07-09T00:51:54.556Z,1003.53
2017-07-09T00:52:54.584Z,1003.53
2017-07-09T00:53:54.607Z,1003.53
2017-07-09T00:54:54.633Z,1003.55
2017-07-09T00:55:54.662Z,1003.55
2017-07-09T00:56:54.688Z,1003.55
2017-07-09T00:57:54.717Z,1003.54
2017-07-09T00:58:54.741Z,1003.55
2017-07-09T00:59:54.769Z,1003.54
2017-07-09T01:00:54.796Z,1003.5
2017-07-09T01:01:54.822Z,1003.51
2017-07-09T01:02:54.849Z,1003.49
2017-07-09T01:03:54.877Z,1003.47
2017-07-09T01:04:54.904Z,1003.45
2017-07-09T01:05:54.928Z,1003.45
2017-07-09T01:06:54.957Z,1003.44
2017-07-09T01:07:54.986Z,1003.41
2017-07-09T01:08:55.010Z,1003.42
2017-07-09T01:09:55.037Z,1003.41
2017-07-09T01:10:55.064Z,1003.41
2017-07-09T01:11:55.091Z,1003.39
2017-07-09T01:12:55.117Z,1003.34
2017-07-09T01:13:55.147Z,1003.34
2017-07-09T01:14:55.171Z,1003.26
2017-07-09T01:15:55.198Z,1003.26
2017-07-09T01:16:55.223Z,1003.26
2017-07-09T01:17:55.252Z,1003.29
2017-07-09T01:18:55.278Z,1003.26
2017-07-09T01:19:55.305Z,1003.29
2017-07-09T01:20:55.334Z,1003.33
2017-07-09T01:21:55.359Z,1003.33
2017-07-09T01:22:55.387Z,1003.32
2017-07-09T01:23:55.411Z,1003.33
2017-07-09T01:24:55.438Z,1003.31
2017-07-09T01:25:55.466Z,1003.33
2017-07-09T01:26:55.492Z,1003.32
2017-07-09T01:27:55.518Z,1003.33
2017-07-09T01:28:55.547Z,1003.37
2017-07-09T01:29:55.572Z,1003.34
2017-07-09T01:30:55.599Z,1003.36
2017-07-09T01:31:55.626Z,1003.39
2017-07-09T01:32:55.652Z,1003.32
2017-07-09T01:33:55.679Z,1003.3
2017-07-09T01:34:55.729Z,1003.25
2017-07-09T01:35:55.757Z,1003.25
2017-07-09T01:36:55.757Z,1003.21
2017-07-09T01:37:55.790Z,1003.26
2017-07-09T01:38:55.811Z,1003.25
2017-07-09T01:39:55.881Z,1003.3
2017-07-09T01:40:55.876Z,1003.29
2017-07-09T01:41:55.891Z,1003.38
2017-07-09T01:42:55.917Z,1003.4
2017-07-09T01:43:55.944Z,1003.4
2017-07-09T01:44:55.971Z,1003.4
2017-07-09T01:45:55.995Z,1003.42
2017-07-09T01:46:56.025Z,1003.44
2017-07-09T01:47:56.049Z,1003.5
2017-07-09T01:48:56.090Z,1003.5
2017-07-09T01:49:56.102Z,1003.52
2017-07-09T01:50:56.129Z,1003.57
2017-07-09T01:51:56.157Z,1003.58
2017-07-09T01:52:56.181Z,1003.64
2017-07-09T01:53:56.196Z,1003.67
2017-07-09T01:54:56.223Z,1003.67
2017-07-09T01:55:56.250Z,1003.69
2017-07-09T01:56:56.278Z,1003.66
2017-07-09T01:57:56.304Z,1003.63
2017-07-09T01:58:56.329Z,1003.58
2017-07-09T01:59:56.356Z,1003.59
2017-07-09T02:00:56.380Z,1003.56
2017-07-09T02:01:56.408Z,1003.54
2017-07-09T02:02:56.508Z,1003.51
2017-07-09T02:03:56.461Z,1003.43
2017-07-09T02:04:56.488Z,1003.41
2017-07-09T02:05:56.514Z,1003.43
2017-07-09T02:06:56.540Z,1003.44
2017-07-09T02:07:56.567Z,1003.42
2017-07-09T02:08:56.592Z,1003.44
2017-07-09T02:09:56.620Z,1003.43
2017-07-09T02:10:56.644Z,1003.43
2017-07-09T02:11:56.671Z,1003.43
2017-07-09T02:12:56.698Z,1003.4
2017-07-09T02:13:56.726Z,1003.41
2017-07-09T02:14:56.750Z,1003.42
2017-07-09T02:15:56.776Z,1003.42
2017-07-09T02:16:56.803Z,1003.35
2017-07-09T02:17:56.830Z,1003.39
2017-07-09T02:18:56.854Z,1003.35
2017-07-09T02:19:56.882Z,1003.33
2017-07-09T02:20:56.908Z,1003.29
2017-07-09T02:21:56.935Z,1003.29
2017-07-09T02:22:56.961Z,1003.32
2017-07-09T02:23:56.987Z,1003.31
2017-07-09T02:24:57.014Z,1003.33
2017-07-09T02:25:57.039Z,1003.33
2017-07-09T02:26:57.066Z,1003.37
2017-07-09T02:27:57.092Z,1003.36
2017-07-09T02:28:57.160Z,1003.38
2017-07-09T02:29:57.143Z,1003.4
2017-07-09T02:30:57.170Z,1003.39
2017-07-09T02:31:57.211Z,1003.4
2017-07-09T02:32:57.225Z,1003.41
2017-07-09T02:33:57.267Z,1003.42
2017-07-09T02:34:57.284Z,1003.41
2017-07-09T02:35:57.331Z,1003.43
2017-07-09T02:36:57.327Z,1003.4
2017-07-09T02:37:57.354Z,1003.44
2017-07-09T02:38:57.379Z,1003.45
2017-07-09T02:39:57.408Z,1003.44
2017-07-09T02:40:57.432Z,1003.49
2017-07-09T02:41:57.458Z,1003.49
2017-07-09T02:42:57.485Z,1003.54
2017-07-09T02:43:57.511Z,1003.59
2017-07-09T02:44:57.536Z,1003.59
2017-07-09T02:45:57.563Z,1003.57
2017-07-09T02:46:57.589Z,1003.6
2017-07-09T02:47:57.616Z,1003.58
2017-07-09T02:48:57.642Z,1003.58
2017-07-09T02:49:57.668Z,1003.59
2017-07-09T02:50:57.694Z,1003.56
2017-07-09T02:51:57.719Z,1003.58
2017-07-09T02:52:57.745Z,1003.53
2017-07-09T02:53:57.772Z,1003.5
2017-07-09T02:54:57.798Z,1003.5
2017-07-09T02:55:57.825Z,1003.48
2017-07-09T02:56:57.852Z,1003.45
2017-07-09T02:57:57.876Z,1003.49
2017-07-09T02:58:57.902Z,1003.49
2017-07-09T02:59:57.929Z,1003.48
2017-07-09T03:00:57.955Z,1003.49
2017-07-09T03:01:57.980Z,1003.46
2017-07-09T03:02:58.006Z,1003.46
2017-07-09T03:03:58.032Z,1003.46
2017-07-09T03:04:58.058Z,1003.45
2017-07-09T03:05:58.085Z,1003.46
2017-07-09T03:06:58.109Z,1003.53
2017-07-09T03:07:58.136Z,1003.54
2017-07-09T03:08:58.162Z,1003.54
2017-07-09T03:09:58.189Z,1003.54
2017-07-09T03:10:58.214Z,1003.53
2017-07-09T03:11:58.241Z,1003.53
2017-07-09T03:12:58.267Z,1003.55
2017-07-09T03:13:58.294Z,1003.55
2017-07-09T03:14:58.317Z,1003.56
2017-07-09T03:15:58.343Z,1003.58
2017-07-09T03:16:58.369Z,1003.59
2017-07-09T03:17:58.395Z,1003.56
2017-07-09T03:18:58.420Z,1003.63
2017-07-09T03:19:58.446Z,1003.64
2017-07-09T03:20:58.475Z,1003.63
2017-07-09T03:21:58.501Z,1003.67
2017-07-09T03:22:58.525Z,1003.67
2017-07-09T03:23:58.551Z,1003.69
2017-07-09T03:24:58.576Z,1003.72
2017-07-09T03:25:58.603Z,1003.7
2017-07-09T03:26:58.628Z,1003.67
2017-07-09T03:27:58.653Z,1003.7
2017-07-09T03:28:58.679Z,1003.67
2017-07-09T03:29:58.705Z,1003.69
2017-07-09T03:30:58.735Z,1003.66
2017-07-09T03:31:58.757Z,1003.64
2017-07-09T03:32:58.783Z,1003.61
2017-07-09T03:33:58.842Z,1003.59
2017-07-09T03:34:58.835Z,1003.57
2017-07-09T03:35:58.860Z,1003.49
2017-07-09T03:36:58.886Z,1003.48
2017-07-09T03:37:58.913Z,1003.48
2017-07-09T03:38:58.937Z,1003.51
2017-07-09T03:39:58.962Z,1003.54
2017-07-09T03:40:58.991Z,1003.56
2017-07-09T03:41:59.015Z,1003.58
2017-07-09T03:42:59.041Z,1003.58
2017-07-09T03:43:59.066Z,1003.58
2017-07-09T03:44:59.092Z,1003.59
2017-07-09T03:45:59.118Z,1003.54
2017-07-09T03:46:59.142Z,1003.54
2017-07-09T03:47:59.170Z,1003.5
2017-07-09T03:48:59.197Z,1003.51
2017-07-09T03:49:59.220Z,1003.51
2017-07-09T03:50:59.246Z,1003.54
2017-07-09T03:51:59.272Z,1003.53
2017-07-09T03:52:59.300Z,1003.58
2017-07-09T03:53:59.324Z,1003.54
2017-07-09T03:54:59.350Z,1003.52
2017-07-09T03:55:59.376Z,1003.52
2017-07-09T03:56:59.403Z,1003.54
2017-07-09T03:57:59.427Z,1003.53
2017-07-09T03:58:59.452Z,1003.51
2017-07-09T03:59:59.480Z,1003.51
2017-07-09T04:00:59.504Z,1003.52
2017-07-09T04:01:59.531Z,1003.48
2017-07-09T04:02:59.555Z,1003.55
2017-07-09T04:03:59.581Z,1003.53
2017-07-09T04:04:59.607Z,1003.52
2017-07-09T04:05:59.634Z,1003.49
2017-07-09T04:06:59.659Z,1003.51
2017-07-09T04:07:59.685Z,1003.47
2017-07-09T04:08:59.710Z,1003.42
2017-07-09T04:09:59.736Z,1003.41
2017-07-09T04:10:59.764Z,1003.37
2017-07-09T04:11:59.786Z,1003.35
2017-07-09T04:12:59.813Z,1003.3
2017-07-09T04:13:59.838Z,1003.34
2017-07-09T04:14:59.866Z,1003.31
2017-07-09T04:15:59.891Z,1003.31
2017-07-09T04:16:59.915Z,1003.31
2017-07-09T04:17:59.941Z,1003.3
2017-07-09T04:18:59.968Z,1003.34
2017-07-09T04:19:59.992Z,1003.31
2017-07-09T04:21:00.019Z,1003.27
2017-07-09T04:22:00.045Z,1003.27
2017-07-09T04:23:00.069Z,1003.28
2017-07-09T04:24:00.095Z,1003.27
2017-07-09T04:25:00.121Z,1003.27
2017-07-09T04:26:00.148Z,1003.28
2017-07-09T04:27:00.171Z,1003.32
2017-07-09T04:28:00.197Z,1003.3
2017-07-09T04:29:00.225Z,1003.34
2017-07-09T04:30:00.250Z,1003.37
2017-07-09T04:31:00.276Z,1003.38
2017-07-09T04:32:00.302Z,1003.36
2017-07-09T04:33:00.327Z,1003.36
2017-07-09T04:34:00.350Z,1003.37
2017-07-09T04:35:00.378Z,1003.35
2017-07-09T04:36:00.403Z,1003.37
2017-07-09T04:37:00.429Z,1003.35
2017-07-09T04:38:00.460Z,1003.34
2017-07-09T04:39:00.480Z,1003.31
2017-07-09T04:40:00.506Z,1003.3
2017-07-09T04:41:00.531Z,1003.33
2017-07-09T04:42:00.557Z,1003.3
2017-07-09T04:43:00.583Z,1003.31
2017-07-09T04:44:00.613Z,1003.36
2017-07-09T04:45:00.633Z,1003.32
2017-07-09T04:46:00.661Z,1003.33
2017-07-09T04:47:00.685Z,1003.29
2017-07-09T04:48:00.710Z,1003.3
2017-07-09T04:49:00.737Z,1003.25
2017-07-09T04:50:00.766Z,1003.26
2017-07-09T04:51:00.790Z,1003.28
2017-07-09T04:52:00.814Z,1003.31
2017-07-09T04:53:00.838Z,1003.3
2017-07-09T04:54:00.869Z,1003.29
2017-07-09T04:55:00.890Z,1003.31
2017-07-09T04:56:00.916Z,1003.31
2017-07-09T04:57:00.942Z,1003.29
2017-07-09T04:58:00.968Z,1003.29
2017-07-09T04:59:00.992Z,1003.3
2017-07-09T05:00:01.025Z,1003.27
2017-07-09T05:01:01.042Z,1003.27
2017-07-09T05:02:01.068Z,1003.25
2017-07-09T05:03:01.093Z,1003.28
2017-07-09T05:04:01.121Z,1003.3
2017-07-09T05:05:01.147Z,1003.33
2017-07-09T05:06:01.179Z,1003.3
2017-07-09T05:07:01.196Z,1003.3
2017-07-09T05:08:01.222Z,1003.33
2017-07-09T05:09:01.248Z,1003.35
2017-07-09T05:10:01.274Z,1003.37
2017-07-09T05:11:01.299Z,1003.34
2017-07-09T05:12:01.331Z,1003.35
2017-07-09T05:13:01.351Z,1003.3
2017-07-09T05:14:01.378Z,1003.3
2017-07-09T05:15:01.404Z,1003.27
2017-07-09T05:16:01.426Z,1003.28
2017-07-09T05:17:01.453Z,1003.29
2017-07-09T05:18:01.477Z,1003.28
2017-07-09T05:19:01.504Z,1003.29
2017-07-09T05:20:01.533Z,1003.32
2017-07-09T05:21:01.555Z,1003.29
2017-07-09T05:22:01.581Z,1003.3
2017-07-09T05:23:01.606Z,1003.35
2017-07-09T05:24:01.632Z,1003.36
2017-07-09T05:25:01.656Z,1003.35
2017-07-09T05:26:01.681Z,1003.36
2017-07-09T05:27:01.708Z,1003.33
2017-07-09T05:28:01.736Z,1003.3
2017-07-09T05:29:01.759Z,1003.28
2017-07-09T05:30:01.786Z,1003.26
2017-07-09T05:31:01.810Z,1003.25
2017-07-09T05:32:01.837Z,1003.25
2017-07-09T05:33:01.862Z,1003.26
2017-07-09T05:34:01.887Z,1003.23
2017-07-09T05:35:01.914Z,1003.22
2017-07-09T05:36:01.939Z,1003.25
2017-07-09T05:37:01.963Z,1003.23
2017-07-09T05:38:01.988Z,1003.23
2017-07-09T05:39:02.017Z,1003.26
2017-07-09T05:40:02.040Z,1003.27
2017-07-09T05:41:02.068Z,1003.31
2017-07-09T05:42:02.092Z,1003.32
2017-07-09T05:43:02.118Z,1003.32
2017-07-09T05:44:02.144Z,1003.33
2017-07-09T05:45:02.170Z,1003.35
2017-07-09T05:46:02.196Z,1003.35
2017-07-09T05:47:02.220Z,1003.36
2017-07-09T05:48:02.246Z,1003.41
2017-07-09T05:49:02.272Z,1003.38
2017-07-09T05:50:02.297Z,1003.35
2017-07-09T05:51:02.321Z,1003.35
2017-07-09T05:52:02.348Z,1003.37
2017-07-09T05:53:02.374Z,1003.37
2017-07-09T05:54:02.400Z,1003.43
2017-07-09T05:55:02.425Z,1003.41
2017-07-09T05:56:02.452Z,1003.41
2017-07-09T05:57:02.479Z,1003.41
2017-07-09T05:58:02.502Z,1003.38
2017-07-09T05:59:02.529Z,1003.42
2017-07-09T06:00:02.553Z,1003.37
2017-07-09T06:01:02.580Z,1003.37
2017-07-09T06:02:02.605Z,1003.37
2017-07-09T06:03:02.631Z,1003.4
2017-07-09T06:04:02.657Z,1003.44
2017-07-09T06:05:02.682Z,1003.43
2017-07-09T06:06:02.709Z,1003.4
2017-07-09T06:07:02.737Z,1003.4
2017-07-09T06:08:02.761Z,1003.39
2017-07-09T06:09:02.786Z,1003.38
2017-07-09T06:10:02.824Z,1003.4
2017-07-09T06:11:02.839Z,1003.43
2017-07-09T06:12:02.867Z,1003.44
2017-07-09T06:13:02.889Z,1003.43
2017-07-09T06:14:02.916Z,1003.46
2017-07-09T06:15:02.942Z,1003.46
2017-07-09T06:16:02.966Z,1003.47
2017-07-09T06:17:02.992Z,1003.5
2017-07-09T06:18:03.018Z,1003.5
2017-07-09T06:19:03.044Z,1003.54
2017-07-09T06:20:03.069Z,1003.5
2017-07-09T06:21:03.096Z,1003.51
2017-07-09T06:22:03.122Z,1003.48
2017-07-09T06:23:03.148Z,1003.45
2017-07-09T06:24:03.172Z,1003.49
2017-07-09T06:25:03.200Z,1003.46
2017-07-09T06:26:03.226Z,1003.44
2017-07-09T06:27:03.250Z,1003.45
2017-07-09T06:28:03.277Z,1003.45
2017-07-09T06:29:03.303Z,1003.43
2017-07-09T06:30:03.378Z,1003.42
2017-07-09T06:31:03.355Z,1003.45
2017-07-09T06:32:03.380Z,1003.45
2017-07-09T06:33:03.406Z,1003.46
2017-07-09T06:34:03.432Z,1003.45
2017-07-09T06:35:03.461Z,1003.4
2017-07-09T06:36:03.483Z,1003.41
2017-07-09T06:37:03.509Z,1003.39
2017-07-09T06:38:03.535Z,1003.4
2017-07-09T06:39:03.561Z,1003.36
2017-07-09T06:40:03.587Z,1003.38
2017-07-09T06:41:03.614Z,1003.35
2017-07-09T06:42:03.641Z,1003.33
2017-07-09T06:43:03.665Z,1003.4
2017-07-09T06:44:03.692Z,1003.46
2017-07-09T06:45:03.718Z,1003.47
2017-07-09T06:46:03.742Z,1003.5
2017-07-09T06:47:03.770Z,1003.56
2017-07-09T06:48:03.795Z,1003.54
2017-07-09T06:49:03.820Z,1003.56
2017-07-09T06:50:03.848Z,1003.54
2017-07-09T06:51:03.872Z,1003.54
2017-07-09T06:52:03.899Z,1003.54
2017-07-09T06:53:03.925Z,1003.59
2017-07-09T06:54:03.951Z,1003.57
2017-07-09T06:55:03.978Z,1003.56
2017-07-09T06:56:04.004Z,1003.54
2017-07-09T06:57:04.029Z,1003.55
2017-07-09T06:58:04.056Z,1003.56
2017-07-09T06:59:04.082Z,1003.55
2017-07-09T07:00:04.107Z,1003.53
2017-07-09T07:01:04.134Z,1003.55
2017-07-09T07:02:04.161Z,1003.56
2017-07-09T07:03:04.187Z,1003.57
2017-07-09T07:04:04.213Z,1003.52
2017-07-09T07:05:04.240Z,1003.53
2017-07-09T07:06:04.265Z,1003.52
2017-07-09T07:07:04.300Z,1003.53
2017-07-09T07:08:04.317Z,1003.5
2017-07-09T07:09:04.345Z,1003.54
2017-07-09T07:10:04.371Z,1003.52
2017-07-09T07:11:04.399Z,1003.58
2017-07-09T07:12:04.425Z,1003.55
2017-07-09T07:13:04.450Z,1003.59
2017-07-09T07:14:04.476Z,1003.57
2017-07-09T07:15:04.502Z,1003.54
2017-07-09T07:16:04.530Z,1003.52
2017-07-09T07:17:04.616Z,1003.49
2017-07-09T07:18:04.585Z,1003.48
2017-07-09T07:19:04.607Z,1003.44
2017-07-09T07:20:04.636Z,1003.47
2017-07-09T07:21:04.661Z,1003.44
2017-07-09T07:22:04.687Z,1003.47
2017-07-09T07:23:04.714Z,1003.47
2017-07-09T07:24:04.741Z,1003.48
2017-07-09T07:25:04.767Z,1003.54
2017-07-09T07:26:04.793Z,1003.54
2017-07-09T07:27:04.820Z,1003.54
2017-07-09T07:28:04.846Z,1003.53
2017-07-09T07:29:04.873Z,1003.46
2017-07-09T07:30:04.900Z,1003.51
2017-07-09T07:31:04.925Z,1003.42
2017-07-09T07:32:04.952Z,1003.44
2017-07-09T07:33:04.978Z,1003.42
2017-07-09T07:34:05.005Z,1003.44
2017-07-09T07:35:05.032Z,1003.47
2017-07-09T07:36:05.059Z,1003.44
2017-07-09T07:37:05.084Z,1003.44
2017-07-09T07:38:05.113Z,1003.43
2017-07-09T07:39:05.141Z,1003.41
2017-07-09T07:40:05.165Z,1003.43
2017-07-09T07:41:05.193Z,1003.35
2017-07-09T07:42:05.221Z,1003.35
2017-07-09T07:43:05.246Z,1003.3
2017-07-09T07:44:05.273Z,1003.32
2017-07-09T07:45:05.299Z,1003.35
2017-07-09T07:46:05.330Z,1003.34
2017-07-09T07:47:05.358Z,1003.33
2017-07-09T07:48:05.385Z,1003.34
2017-07-09T07:49:05.408Z,1003.33
2017-07-09T07:50:05.434Z,1003.39
2017-07-09T07:51:05.460Z,1003.34
2017-07-09T07:52:05.488Z,1003.43
2017-07-09T07:53:05.515Z,1003.4
2017-07-09T07:54:05.542Z,1003.44
2017-07-09T07:55:05.568Z,1003.44
2017-07-09T07:56:05.596Z,1003.46
2017-07-09T07:57:05.624Z,1003.42
2017-07-09T07:58:05.650Z,1003.42
2017-07-09T07:59:05.677Z,1003.41
2017-07-09T08:00:05.703Z,1003.4
2017-07-09T08:01:05.732Z,1003.4
2017-07-09T08:02:05.757Z,1003.37
2017-07-09T08:03:05.786Z,1003.41
2017-07-09T08:04:05.812Z,1003.37
2017-07-09T08:05:05.841Z,1003.44
2017-07-09T08:06:05.868Z,1003.39
2017-07-09T08:07:05.896Z,1003.38
2017-07-09T08:08:05.922Z,1003.39
2017-07-09T08:09:05.953Z,1003.37
2017-07-09T08:10:05.976Z,1003.41
2017-07-09T08:11:06.006Z,1003.42
2017-07-09T08:12:06.031Z,1003.43
2017-07-09T08:13:06.058Z,1003.41
2017-07-09T08:14:06.086Z,1003.43
2017-07-09T08:15:06.114Z,1003.42
2017-07-09T08:16:06.142Z,1003.45
2017-07-09T08:17:06.168Z,1003.47
2017-07-09T08:18:06.197Z,1003.48
2017-07-09T08:19:06.228Z,1003.49
2017-07-09T08:20:06.252Z,1003.44
2017-07-09T08:21:06.279Z,1003.45
2017-07-09T08:22:06.307Z,1003.46
2017-07-09T08:23:06.335Z,1003.43
2017-07-09T08:24:06.361Z,1003.43
2017-07-09T08:25:06.391Z,1003.4
2017-07-09T08:26:06.417Z,1003.43
2017-07-09T08:27:06.445Z,1003.43
2017-07-09T08:28:06.473Z,1003.44
2017-07-09T08:29:06.501Z,1003.41
2017-07-09T08:30:06.530Z,1003.43
2017-07-09T08:31:06.557Z,1003.37
2017-07-09T08:32:06.598Z,1003.43
2017-07-09T08:33:06.614Z,1003.39
2017-07-09T08:34:06.642Z,1003.39
2017-07-09T08:35:06.670Z,1003.38
2017-07-09T08:36:06.697Z,1003.32
2017-07-09T08:37:06.812Z,1003.33
2017-07-09T08:38:06.756Z,1003.31
2017-07-09T08:39:06.784Z,1003.31
2017-07-09T08:40:06.809Z,1003.31
2017-07-09T08:41:06.837Z,1003.28
2017-07-09T08:42:06.868Z,1003.33
2017-07-09T08:43:06.894Z,1003.33
2017-07-09T08:44:06.922Z,1003.28
2017-07-09T08:45:06.954Z,1003.25
2017-07-09T08:46:06.979Z,1003.26
2017-07-09T08:47:07.125Z,1003.17
2017-07-09T08:48:07.038Z,1003.21
2017-07-09T08:49:07.064Z,1003.21
2017-07-09T08:50:07.093Z,1003.19
2017-07-09T08:51:07.120Z,1003.17
2017-07-09T08:52:07.150Z,1003.18
2017-07-09T08:53:07.178Z,1003.16
2017-07-09T08:54:07.233Z,1003.15
2017-07-09T08:55:07.235Z,1003.18
2017-07-09T08:56:07.264Z,1003.16
2017-07-09T08:57:07.292Z,1003.18
2017-07-09T08:58:07.320Z,1003.18
2017-07-09T08:59:07.348Z,1003.18
2017-07-09T09:00:07.377Z,1003.15
2017-07-09T09:01:07.405Z,1003.18
2017-07-09T09:02:07.434Z,1003.2
2017-07-09T09:03:07.468Z,1003.26
2017-07-09T09:04:07.492Z,1003.24
2017-07-09T09:05:07.520Z,1003.27
2017-07-09T09:06:07.550Z,1003.28
2017-07-09T09:07:07.578Z,1003.29
2017-07-09T09:08:07.607Z,1003.27
2017-07-09T09:09:07.635Z,1003.22
2017-07-09T09:10:07.664Z,1003.19
2017-07-09T09:11:07.692Z,1003.22
2017-07-09T09:12:07.721Z,1003.25
2017-07-09T09:13:07.752Z,1003.2
2017-07-09T09:14:07.780Z,1003.22
2017-07-09T09:15:07.810Z,1003.21
2017-07-09T09:16:07.839Z,1003.23
2017-07-09T09:17:07.867Z,1003.22
2017-07-09T09:18:07.896Z,1003.23
2017-07-09T09:19:07.925Z,1003.21
2017-07-09T09:20:07.955Z,1003.24
2017-07-09T09:21:07.988Z,1003.28
2017-07-09T09:22:08.015Z,1003.27
2017-07-09T09:23:08.040Z,1003.28
2017-07-09T09:24:08.187Z,1003.27
2017-07-09T09:25:08.100Z,1003.27
2017-07-09T09:26:08.129Z,1003.17
2017-07-09T09:27:08.250Z,1003.13
2017-07-09T09:28:08.286Z,1003.11
2017-07-09T09:29:08.275Z,1003.06
2017-07-09T09:30:08.355Z,1003.03
2017-07-09T09:31:08.362Z,1003.05
2017-07-09T09:32:08.361Z,1003.07
2017-07-09T09:33:08.440Z,1003.07
2017-07-09T09:34:08.380Z,1003.1
2017-07-09T09:35:08.392Z,1003.14
2017-07-09T09:36:08.510Z,1003.07
2017-07-09T09:37:08.485Z,1003.09
2017-07-09T09:38:08.547Z,1003.08
2017-07-09T09:39:08.584Z,1003.04
2017-07-09T09:40:08.545Z,1003.02
2017-07-09T09:41:08.569Z,1003.05
2017-07-09T09:42:08.598Z,1003.04
2017-07-09T09:43:08.628Z,1003.05
2017-07-09T09:44:08.658Z,1003.03
2017-07-09T09:45:08.686Z,1003.08
2017-07-09T09:46:08.718Z,1003.07
2017-07-09T09:47:08.747Z,1003.06
2017-07-09T09:48:08.781Z,1003.04
2017-07-09T09:49:08.807Z,1002.99
2017-07-09T09:50:08.837Z,1003.03
2017-07-09T09:51:08.866Z,1002.99
2017-07-09T09:52:08.897Z,1002.98
2017-07-09T09:53:08.925Z,1003
2017-07-09T09:54:08.957Z,1003.03
2017-07-09T09:55:08.986Z,1003.03
2017-07-09T09:56:09.015Z,1003.03
2017-07-09T09:57:09.045Z,1003.01
2017-07-09T09:58:09.076Z,1003.02
2017-07-09T09:59:09.106Z,1002.97
2017-07-09T10:00:09.136Z,1002.97
2017-07-09T10:01:09.165Z,1003.01
2017-07-09T10:02:09.197Z,1003.02
2017-07-09T10:03:09.226Z,1003.04
2017-07-09T10:04:09.255Z,1002.99
2017-07-09T10:05:09.287Z,1003.01
2017-07-09T10:06:09.318Z,1003.03
2017-07-09T10:07:09.348Z,1003
2017-07-09T10:08:09.377Z,1003.01
2017-07-09T10:09:09.409Z,1002.93
2017-07-09T10:10:09.439Z,1002.94
2017-07-09T10:11:09.469Z,1002.96
2017-07-09T10:12:09.499Z,1002.92
2017-07-09T10:13:09.531Z,1002.91
2017-07-09T10:14:09.562Z,1002.9
2017-07-09T10:15:09.595Z,1002.96
2017-07-09T10:16:09.625Z,1002.94
2017-07-09T10:17:09.655Z,1002.93
2017-07-09T10:18:09.684Z,1002.92
2017-07-09T10:19:09.716Z,1002.95
2017-07-09T10:20:09.746Z,1002.96
2017-07-09T10:21:09.777Z,1002.95
2017-07-09T10:22:09.808Z,1002.94
2017-07-09T10:23:09.840Z,1002.97
2017-07-09T10:24:09.870Z,1002.98
2017-07-09T10:25:09.901Z,1002.95
2017-07-09T10:26:09.933Z,1002.92
2017-07-09T10:27:09.963Z,1002.91
2017-07-09T10:28:09.997Z,1002.87
2017-07-09T10:29:10.026Z,1002.91
2017-07-09T10:30:10.058Z,1002.88
2017-07-09T10:31:10.138Z,1002.84
2017-07-09T10:32:10.119Z,1002.8
2017-07-09T10:33:10.151Z,1002.79
2017-07-09T10:34:10.184Z,1002.77
2017-07-09T10:35:10.214Z,1002.8
2017-07-09T10:36:10.246Z,1002.75
2017-07-09T10:37:10.277Z,1002.74
2017-07-09T10:38:10.308Z,1002.74
2017-07-09T10:39:10.340Z,1002.76
2017-07-09T10:40:10.374Z,1002.74
2017-07-09T10:41:10.403Z,1002.71
2017-07-09T10:42:10.436Z,1002.74
2017-07-09T10:43:10.468Z,1002.78
2017-07-09T10:44:10.511Z,1002.74
2017-07-09T10:45:10.531Z,1002.75
2017-07-09T10:46:10.563Z,1002.75
2017-07-09T10:47:10.614Z,1002.72
2017-07-09T10:48:10.629Z,1002.74
2017-07-09T10:49:10.659Z,1002.76
2017-07-09T10:50:10.695Z,1002.72
2017-07-09T10:51:10.725Z,1002.69
2017-07-09T10:52:10.756Z,1002.7
2017-07-09T10:53:10.789Z,1002.63
2017-07-09T10:54:10.820Z,1002.69
2017-07-09T10:55:10.852Z,1002.66
2017-07-09T10:56:10.886Z,1002.68
2017-07-09T10:57:10.919Z,1002.68
2017-07-09T10:58:10.950Z,1002.67
2017-07-09T10:59:10.985Z,1002.64
2017-07-09T11:00:11.017Z,1002.66
2017-07-09T11:01:11.048Z,1002.66
2017-07-09T11:02:11.081Z,1002.67
2017-07-09T11:03:11.116Z,1002.62
2017-07-09T11:04:11.150Z,1002.62
2017-07-09T11:05:11.181Z,1002.6
2017-07-09T11:06:11.213Z,1002.57
2017-07-09T11:07:11.248Z,1002.53
2017-07-09T11:08:11.281Z,1002.46
2017-07-09T11:09:11.312Z,1002.34
2017-07-09T11:10:11.353Z,1002.28
2017-07-09T11:11:11.387Z,1002.25
2017-07-09T11:12:11.412Z,1002.25
2017-07-09T11:13:11.446Z,1002.21
2017-07-09T11:14:11.480Z,1002.19
2017-07-09T11:15:11.514Z,1002.23
2017-07-09T11:16:11.545Z,1002.24
2017-07-09T11:17:11.579Z,1002.29
2017-07-09T11:18:11.613Z,1002.28
2017-07-09T11:19:11.646Z,1002.29
2017-07-09T11:20:11.679Z,1002.28
2017-07-09T11:21:11.713Z,1002.31
2017-07-09T11:22:11.748Z,1002.26
2017-07-09T11:23:11.781Z,1002.22
2017-07-09T11:24:11.813Z,1002.22
2017-07-09T11:25:11.847Z,1002.21
2017-07-09T11:26:11.881Z,1002.23
2017-07-09T11:27:11.915Z,1002.22
2017-07-09T11:28:11.950Z,1002.23
2017-07-09T11:29:11.982Z,1002.23
2017-07-09T11:30:12.106Z,1002.25
2017-07-09T11:31:12.132Z,1002.26
2017-07-09T11:32:12.131Z,1002.26
2017-07-09T11:33:12.217Z,1002.24
2017-07-09T11:34:12.273Z,1002.22
2017-07-09T11:35:12.297Z,1002.2
2017-07-09T11:36:12.297Z,1002.16
2017-07-09T11:37:12.297Z,1002.2
2017-07-09T11:38:12.296Z,1002.19
2017-07-09T11:39:12.406Z,1002.17
2017-07-09T11:40:12.482Z,1002.2
2017-07-09T11:41:12.443Z,1002.22
2017-07-09T11:42:12.427Z,1002.2
2017-07-09T11:43:12.460Z,1002.19
2017-07-09T11:44:12.496Z,1002.18
2017-07-09T11:45:12.528Z,1002.15
2017-07-09T11:46:12.563Z,1002.14
2017-07-09T11:47:12.598Z,1002.15
2017-07-09T11:48:12.632Z,1002.18
2017-07-09T11:49:12.666Z,1002.15
2017-07-09T11:50:12.701Z,1002.12
2017-07-09T11:51:12.737Z,1002.11
2017-07-09T11:52:12.771Z,1002.07
2017-07-09T11:53:12.803Z,1002.11
2017-07-09T11:54:12.840Z,1002.12
2017-07-09T11:55:12.877Z,1002.11
2017-07-09T11:56:12.908Z,1002.12
2017-07-09T11:57:12.942Z,1002.12
2017-07-09T11:58:12.979Z,1002.07
2017-07-09T11:59:13.013Z,1002.12
2017-07-09T12:00:13.048Z,1002.09
2017-07-09T12:01:13.081Z,1002.08
2017-07-09T12:02:13.117Z,1002.03
2017-07-09T12:03:13.152Z,1002.05
2017-07-09T12:04:13.186Z,1002.1
2017-07-09T12:05:13.221Z,1002.04
2017-07-09T12:06:13.258Z,1002.07
2017-07-09T12:07:13.291Z,1002.05
2017-07-09T12:08:13.327Z,1002.03
2017-07-09T12:09:13.363Z,1002.03